Tiempo atmosférico en la estación meteorológica de Almendralejo, Badajoz (371 m.)



Fecha
DESCASC
Temp. máxima en grados centígrados (hora)
DESCASC
Temp. mínima en grados centígrados (hora)
DESCASC
Temp. media en grados centígrados
DESCASC
Racha de viento máxima en m/sg (hora)
DESCASC
Velocidad máxima media en intervalos de 10 minutos(hora)
DESCASC
Precipitaciones diarias en mm
DESCASC
Precipitaciones de 00:00 a 06:00 en mm
DESCASC
Precipitaciones de 06:00 a 12:00 en mm
DESCASC
Precipitaciones de 12:00 a 18:00 en mm
DESCASC
Precipitaciones de 18:00 a 24:00 en mm
DESCASC
28-02-2021 18.2 (14:20) 5.8 (08:20) 12 10.56 (11:50) 5.56 (12:20) 0 0 0 0 0
27-02-2021 16.6 (15:00) 4.9 (07:40) 10.8 6.11 (15:30) 3.89 (15:50) 0 0 0 0 0
26-02-2021 16.3 (16:10) 8.7 (07:00) 12.5 6.39 (16:50) 3.89 (16:40) 0 0 0 0 0
25-02-2021 15.6 (14:20) 7.3 (00:00) 11.5 6.67 (16:40) 4.44 (03:00) 0 0 0 0 0
24-02-2021 19.2 (15:50) 3.6 (00:00) 11.4 11.11 (14:40) 7.22 (14:30) 0 0 0 0 0
23-02-2021 17.1 (15:50) 3.7 (00:00) 10.4 8.06 (14:20) 5.28 (14:40) 0 0 0 0 0
22-02-2021 14 (17:40) 3.1 (00:00) 8.5 8.33 (14:50) 5.28 (15:40) 0 0 0 0 0
21-02-2021 14 (04:50) 6.6 (00:00) 10.3 16.67 (06:00) 12.22 (06:00) 9.6 0 9.4 0.2 0
20-02-2021 16.6 (14:40) 8.9 (00:00) 12.8 15.56 (13:20) 11.11 (13:00) 0 0 0 0 0
19-02-2021 19.8 (14:20) 5.7 (00:00) 12.7 13.89 (14:20) 7.78 (14:20) 0 0 0 0 0
18-02-2021 19.6 (16:00) 7.2 (00:00) 13.4 7.78 (17:20) 4.72 (17:20) 0 0 0 0 0
17-02-2021 20.7 (16:20) 5.9 (00:00) 13.3 4.17 (06:30) 3.61 (06:30) 0 0 0 0 0
16-02-2021 17.7 (16:50) 5.6 (00:00) 11.7 5.56 (06:10) 4.17 (06:10) 0 0 0 0 0
15-02-2021 19.6 (15:50) 6.3 (00:00) 13 10 (12:10) 7.22 (12:40) 0 0 0 0 0
14-02-2021 20.2 (15:50) 4.8 (00:00) 12.5 6.39 (17:00) 3.61 (02:10) 0 0 0 0 0
13-02-2021 16.6 (17:20) 5.8 (00:00) 11.2 4.44 (12:40) 2.5 (12:50) 0 0 0 0 0
12-02-2021 15.3 (15:50) 8.6 (00:00) 12 10.83 (05:10) 7.22 (04:50) 0.4 0.4 0 0 0
11-02-2021 15.9 (16:00) 11.8 (00:00) 13.8 6.39 (00:10) 5 (12:30) 0.2 0 0 0.2 0
10-02-2021 13.3 (18:00) 9.8 (00:00) 11.6 16.67 (03:20) 10.28 (03:20) 3.2 0.2 3 0 0
09-02-2021 12.4 (17:30) 8.6 (00:00) 10.5 16.94 (12:50) 11.67 (12:40) 5.6 0 1 4.6 0
08-02-2021 13.7 (14:50) 8 (00:00) 10.8 15.83 (02:20) 10.28 (02:40) 3.4 3.2 0 0.2 0
07-02-2021 9.8 (14:40) 4.9 (00:00) 7.4 12.5 (23:40) 9.17 (23:50) 0 0 0 0 0
06-02-2021 11.7 (13:40) 8.1 (00:00) 9.9 8.33 (14:40) 5.28 (14:40) 2.4 0 0.4 1.6 0.4
05-02-2021 10.7 (11:50) 9.2 (00:00) 9.9 5.56 (02:30) 3.89 (12:20) 15 3.2 2.6 8.8 0.4
04-02-2021 13 (12:10) 9.6 (00:00) 11.3 10 (12:20) 6.67 (10:30) 7 2.2 0.6 4.2 0
03-02-2021 17 (16:10) 8.9 (00:00) 12.9 11.39 (16:30) 9.17 (17:10) 2 0 0 0 2
02-02-2021 14.3 (15:30) 8.1 (00:00) 11.2 6.94 (12:50) 5.28 (12:40) 0.6 0 0.6 0 0
01-02-2021 15.6 (15:50) 8.4 (00:00) 12 10.28 (03:40) 6.11 (16:30) 0 0 0 0 0

Gráficas

Temp. máximas Temp. mínimas Temp. medias Precipitaciones Rachas de viento máximas Velocidades máximas media en intervalos de 10 minutos

Datos horarios

Fecha y hora oficial Temperatura (ºC) Velocidad del viento (km/h) Dirección del viento Racha (km/h) Dirección de racha Precipitación (mm) Presión (hPa) Tendencia (hPa) Humedad (%)
2021-03-02 23:00:00 12.8 8 Este 11 Este 0 -- -- 78
2021-03-02 22:00:00 13.5 9 Este 11 Este 0 -- -- 74
2021-03-02 21:00:00 13.7 6 Este 10 Este 0 -- -- 72
2021-03-02 20:00:00 14.8 8 Este 12 Este 0 -- -- 68
2021-03-02 19:00:00 16.4 8 Este 19 Este 0 -- -- 62
2021-03-02 18:00:00 17.3 12 Nordeste 19 Nordeste 0 -- -- 61
2021-03-02 17:00:00 17.3 9 Nordeste 19 Nordeste 0 -- -- 60
2021-03-02 16:00:00 17 8 Este 16 Nordeste 0 -- -- 62
2021-03-02 15:00:00 17.1 9 Nordeste 21 Este 0 -- -- 62
2021-03-02 14:00:00 17.1 9 Este 15 Este 0 -- -- 62
2021-03-02 13:00:00 16.2 6 Este 13 Este 0 -- -- 67
2021-03-02 12:00:00 14.5 4 Sudeste 9 Sudeste 0 -- -- 71
2021-03-02 11:00:00 12.2 2 Sudeste 8 Sudeste 0 -- -- 83
2021-03-02 10:00:00 10.1 3 Este 6 Nordeste 0 -- -- 89
2021-03-02 09:00:00 8.6 2 Oeste 5 Nordeste 0 -- -- 93
2021-03-02 08:00:00 7.8 4 Sudoeste 8 Sudeste 0 -- -- 91
2021-03-02 07:00:00 8.1 6 Sudeste 8 Sudeste 0 -- -- 92
2021-03-02 06:00:00 7.8 2 Sur 6 Este 0 -- -- 91
2021-03-02 05:00:00 8.3 4 Este 13 Sur 0 -- -- 90
2021-03-02 04:00:00 8.7 4 Este 9 Nordeste 0 -- -- 87
2021-03-02 03:00:00 8.9 3 Norte 13 Norte 0 -- -- 86
2021-03-02 02:00:00 9.5 4 Sudoeste 6 Oeste 0 -- -- 85
2021-03-02 01:00:00 9.4 4 Sur 9 Sur 0 -- -- 83
2021-03-02 00:00:00 10 6 Sur 9 Sudeste 0 -- -- 81
2021-03-01 23:00:00 11.7 6 Sur 9 Sudeste 0 -- -- 76
2021-03-01 22:00:00 11.3 8 Sudeste 10 Sudeste 0 -- -- 79
2021-03-01 21:00:00 11.7 8 Sudeste 10 Sudeste 0 -- -- 76
2021-03-01 20:00:00 12.4 9 Sudeste 12 Este 0 -- -- 73
2021-03-01 19:00:00 13.9 7 Este 15 Este 0 -- -- 68
2021-03-01 18:00:00 15.5 10 Sudeste 22 Este 0 -- -- 60
2021-03-01 17:00:00 15.3 10 Este 21 Sudeste 0 -- -- 63
2021-03-01 16:00:00 15.5 12 Sudeste 20 Este 0 -- -- 64
2021-03-01 15:00:00 15.1 13 Sudeste 23 Sur 0 -- -- 65
2021-03-01 14:00:00 15.2 13 Sudeste 22 Sudeste 0 -- -- 65
2021-03-01 13:00:00 13.8 13 Sudeste 22 Sur 0 -- -- 72
2021-03-01 12:00:00 12.8 11 Sudeste 16 Sudeste 0 -- -- 77
2021-03-01 11:00:00 11.1 6 Sudeste 10 Sudeste 0 -- -- 86
2021-03-01 10:00:00 9.8 7 Sudeste 14 Sudeste 0 -- -- 88
2021-03-01 09:00:00 7.9 6 Sudeste 13 Sudeste 0 -- -- 93
2021-03-01 08:00:00 7.7 7 Sudeste 10 Sur 0 -- -- 92
2021-03-01 07:00:00 7.2 9 Sudoeste 16 Sur 0 -- -- 91
2021-03-01 06:00:00 7.9 8 Sur 10 Sur 0 -- -- 89
2021-03-01 05:00:00 8.7 6 Sudeste 10 Sudeste 0 -- -- 88
2021-03-01 04:00:00 9 5 Sur 7 Sudeste 0 -- -- 83
2021-03-01 03:00:00 9.1 0 Calma 8 Sur 0 -- -- 85
2021-03-01 02:00:00 8.4 8 Sur 10 Sur 0 -- -- 84
2021-03-01 01:00:00 9.5 4 Sudoeste 10 Sudoeste 0 -- -- 83
2021-03-01 00:00:00 9.8 9 Sudoeste 9 Sudoeste 0 -- -- 82
2021-02-28 23:00:00 10.4 9 Sudoeste 12 Sudoeste 0 -- -- 80
2021-02-28 22:00:00 10.8 -- -- -- -- 0 -- -- 77
2021-02-28 21:00:00 12.1 8 Sudoeste 14 Sudoeste 0 -- -- 72
2021-02-28 20:00:00 13.2 9 Sudoeste 13 Sudoeste 0 -- -- 68
2021-02-28 19:00:00 15.2 7 Sur 15 Sudeste 0 -- -- 62
2021-02-28 18:00:00 16.3 10 Sudeste 17 Sur 0 -- -- 59
2021-02-28 17:00:00 17.5 12 Sur 19 Sur 0 -- -- 51
2021-02-28 16:00:00 17.1 12 Sur 30 Sur 0 -- -- 54
2021-02-28 15:00:00 17 12 Sudeste 22 Sudoeste 0 -- -- 56
2021-02-28 14:00:00 17.6 14 Sur 27 Sudoeste 0 -- -- 54
2021-02-28 13:00:00 17.1 17 Sudoeste 33 Sudoeste 0 -- -- 54
2021-02-28 12:00:00 15.8 18 Sudoeste 38 Sudoeste 0 -- -- 63
2021-02-28 11:00:00 13.6 17 Sur 25 Sudoeste 0 -- -- 71
2021-02-28 10:00:00 10.9 11 Sur 17 Sur 0 -- -- 82
2021-02-28 09:00:00 7.6 10 Sur 13 Sur 0 -- -- 95
2021-02-28 08:00:00 6 12 Sur 15 Sudoeste 0 -- -- 95
2021-02-28 07:00:00 6.5 14 Sur 15 Sur 0 -- -- 96
2021-02-28 06:00:00 7.1 9 Sur 13 Sur 0 -- -- 96
2021-02-28 05:00:00 6.6 7 Sur 15 Sudoeste 0 -- -- 94
2021-02-28 04:00:00 6.6 10 Sur 13 Sur 0 -- -- 90
2021-02-28 03:00:00 7.8 10 Sur 16 Sudoeste 0 -- -- 85
2021-02-28 02:00:00 8.1 8 Sur 12 Sur 0 -- -- 86
2021-02-28 01:00:00 8.5 6 Sur 8 Sur 0 -- -- 82
2021-02-28 00:00:00 9 4 Sur 8 Este 0 -- -- 80
2021-02-27 23:00:00 10.9 4 Sudeste 6 Sudeste 0 -- -- 78
2021-02-27 22:00:00 11.2 6 Sudeste 8 Este 0 -- -- 75
2021-02-27 21:00:00 11.6 4 Sudeste 6 Sur 0 -- -- 71
2021-02-27 20:00:00 12.5 2 Este 9 Este 0 -- -- 67
2021-02-27 19:00:00 14 8 Este 15 Este 0 -- -- 61
2021-02-27 18:00:00 15.6 8 Este 15 Este 0 -- -- 54
2021-02-27 17:00:00 16.4 9 Sudeste 21 Este 0 -- -- 48
2021-02-27 16:00:00 16.2 14 Este 22 Este 0 -- -- 52
2021-02-27 15:00:00 16.6 12 Este 19 Este 0 -- -- 65
2021-02-27 14:00:00 15.6 9 Este 17 Este 0 -- -- 68
2021-02-27 13:00:00 14.6 9 Este 15 Este 0 -- -- 73
2021-02-27 12:00:00 12.8 6 Sudeste 14 Sudeste 0 -- -- 80
2021-02-27 11:00:00 10.6 6 Sudeste 12 Sur 0 -- -- 90
2021-02-27 10:00:00 7.7 8 Sur 14 Sudeste 0 -- -- 99
2021-02-27 09:00:00 6 5 Sudeste 9 Sur 0 -- -- 99
2021-02-27 08:00:00 5.2 7 Sur 8 Sur 0 -- -- 99
2021-02-27 07:00:00 5.2 6 Sur 11 Sur 0 -- -- 98
2021-02-27 06:00:00 5.2 11 Sur 12 Sur 0 -- -- 96
2021-02-27 05:00:00 7.3 4 Sur 6 Sudeste 0 -- -- 95
2021-02-27 04:00:00 8.3 4 Nordeste 5 Nordeste 0 -- -- 94
2021-02-27 03:00:00 9.2 4 Noroeste 8 Noroeste 0 -- -- 91
2021-02-27 02:00:00 9.9 8 Noroeste 10 Noroeste 0 -- -- 89
2021-02-27 01:00:00 10.3 8 Noroeste 9 Noroeste 0 -- -- 86
2021-02-27 00:00:00 10.6 6 Noroeste 9 Noroeste 0 -- -- 84
2021-02-26 23:00:00 11.6 5 Noroeste 8 Norte 0 -- -- 78
2021-02-26 22:00:00 12.2 6 Norte 9 Nordeste 0 -- -- 75
2021-02-26 21:00:00 12.3 7 Nordeste 10 Nordeste 0 -- -- 76
2021-02-26 20:00:00 12.7 5 Nordeste 7 Este 0 -- -- 75
2021-02-26 19:00:00 13.8 4 Este 15 Este 0 -- -- 73
2021-02-26 18:00:00 14.7 9 Este 17 Este 0 -- -- 70
2021-02-26 17:00:00 15.4 10 Este 23 Nordeste 0 -- -- 68
2021-02-26 16:00:00 16.2 10 Este 17 Este 0 -- -- 62
2021-02-26 15:00:00 15.5 9 Este 17 Sudeste 0 -- -- 66
2021-02-26 14:00:00 15.5 12 Este 19 Este 0 -- -- 69
2021-02-26 13:00:00 14.8 7 Sudeste 13 Sudeste 0 -- -- 72
2021-02-26 12:00:00 12.9 6 Sur 12 Sudeste 0 -- -- 81
2021-02-26 11:00:00 11 7 Sudeste 17 Este 0 -- -- 90
2021-02-26 10:00:00 9.6 8 Sudeste 15 Este 0 -- -- 94
2021-02-26 09:00:00 9 6 Este 13 Sudeste 0 -- -- 95
2021-02-26 08:00:00 9.3 7 Sur 13 Sudoeste 0 -- -- 93
2021-02-26 07:00:00 8.7 6 Sudeste 8 Sudeste 0 -- -- 94
2021-02-26 06:00:00 9 6 Sudeste 9 Sudeste 0 -- -- 93
2021-02-26 05:00:00 8.9 6 Sudeste 9 Sur 0 -- -- 93
2021-02-26 04:00:00 9.1 7 Sur 12 Sur 0 -- -- 90
2021-02-26 03:00:00 10 9 Sur 14 Sudeste 0 -- -- 88
2021-02-26 02:00:00 9.9 9 Sudeste 13 Este 0 -- -- 92
2021-02-26 01:00:00 10.7 5 Sudeste 16 Sudeste 0 -- -- 88
2021-02-26 00:00:00 10.7 8 Sudeste 13 Sudeste 0 -- -- 87
2021-02-25 23:00:00 10.8 6 Sudeste 9 Sudeste 0 -- -- 86
2021-02-25 22:00:00 11 7 Este 10 Sudeste 0 -- -- 84
2021-02-25 21:00:00 11.8 9 Este 13 Este 0 -- -- 83
2021-02-25 20:00:00 12.6 8 Este 10 Este 0 -- -- 82
2021-02-25 19:00:00 14.2 8 Sudeste 18 Sudeste 0 -- -- 76
2021-02-25 18:00:00 14.6 11 Sudeste 21 Sudeste 0 -- -- 75
2021-02-25 17:00:00 15.5 12 Sudeste 24 Sudeste 0 -- -- 68
2021-02-25 16:00:00 15.5 14 Sudeste 20 Sudeste 0 -- -- 66
2021-02-25 15:00:00 15.4 9 Sudeste 18 Sudeste 0 -- -- 68
2021-02-25 14:00:00 15.5 10 Sur 19 Sur 0 -- -- 68
2021-02-25 13:00:00 14.1 9 Sur 17 Sur 0 -- -- 75
2021-02-25 12:00:00 12.7 9 Sudeste 14 Sudeste 0 -- -- 78
2021-02-25 11:00:00 11.3 10 Sur 15 Sudeste 0 -- -- 83
2021-02-25 10:00:00 9.7 10 Sur 14 Sur 0 -- -- 88
2021-02-25 09:00:00 8.6 7 Sur 13 Sur 0 -- -- 90
2021-02-25 08:00:00 8 8 Sudeste 11 Sudeste 0 -- -- 91
2021-02-25 07:00:00 7.7 6 Sudeste 8 Sur 0 -- -- 90
2021-02-25 06:00:00 8.1 3 Este 18 Sur 0 -- -- 90
2021-02-25 05:00:00 7.7 15 Sudoeste 18 Sur 0 -- -- 90
2021-02-25 04:00:00 7.4 8 Sudoeste 18 Sur 0 -- -- 89
2021-02-25 03:00:00 8 16 Sur 21 Sudoeste 0 -- -- 88
2021-02-25 02:00:00 7.9 10 Sudoeste 14 Sudoeste 0 -- -- 87
2021-02-25 01:00:00 8.6 9 Sudoeste 13 Sudoeste 0 -- -- 87
2021-02-25 00:00:00 8.7 9 Sudoeste 11 Sudoeste 0 -- -- 86
2021-02-24 23:00:00 9.7 6 Sur 15 Sudoeste 0 -- -- 83
2021-02-24 22:00:00 11.2 10 Sudoeste 18 Sudoeste 0 -- -- 78
2021-02-24 21:00:00 12.4 12 Sudoeste 18 Sudoeste 0 -- -- 73
2021-02-24 20:00:00 13.5 12 Sudoeste 15 Sudoeste 0 -- -- 69
2021-02-24 19:00:00 15.6 12 Sudoeste 23 Sudoeste 0 -- -- 62
2021-02-24 18:00:00 17.2 18 Sudoeste 37 Sudoeste 0 -- -- 57
2021-02-24 17:00:00 17.9 22 Sudoeste 35 Sudoeste 0 -- -- 56
2021-02-24 16:00:00 19 21 Sudoeste 38 Sudoeste 0 -- -- 51
2021-02-24 15:00:00 18.7 24 Sur 40 Sur 0 -- -- 49
2021-02-24 14:00:00 17.9 22 Sur 33 Sur 0 -- -- 53
2021-02-24 13:00:00 15.9 19 Sur 32 Sur 0 -- -- 59
2021-02-24 12:00:00 14.5 24 Sur 35 Sur 0 -- -- 63
2021-02-24 11:00:00 11.5 11 Sudeste 17 Sudeste 0 -- -- 76
2021-02-24 10:00:00 8.7 10 Sur 15 Sur 0 -- -- 84
2021-02-24 09:00:00 5.4 6 Sudeste 9 Sudeste 0 -- -- 93
2021-02-24 08:00:00 3.6 4 Sudeste 13 Sudeste 0 -- -- 93
2021-02-24 07:00:00 4.2 8 Este 13 Sur 0 -- -- 90
2021-02-24 06:00:00 5.5 5 Sur 14 Sur 0 -- -- 87
2021-02-24 05:00:00 5.6 9 Sur 13 Sur 0 -- -- 86
2021-02-24 04:00:00 5.6 9 Sur 14 Sur 0 -- -- 85
2021-02-24 03:00:00 5.9 8 Sur 12 Sur 0 -- -- 84
2021-02-24 02:00:00 5.9 9 Sur 17 Sudoeste 0 -- -- 83
2021-02-24 01:00:00 6.8 14 Sudoeste 16 Sudoeste 0 -- -- 78
2021-02-24 00:00:00 6.8 12 Sudoeste 13 Sudoeste 0 -- -- 79
2021-02-23 23:00:00 7.6 11 Sur 14 Sur 0 -- -- 76
2021-02-23 22:00:00 9 9 Sudoeste 17 Sur 0 -- -- 73
2021-02-23 21:00:00 10.9 9 Sudoeste 13 Sur 0 -- -- 66
2021-02-23 20:00:00 12.7 6 Sur 13 Sur 0 -- -- 61
2021-02-23 19:00:00 15 9 Sur 23 Sur 0 -- -- 53
2021-02-23 18:00:00 16.5 13 Sur 26 Sur 0 -- -- 46
2021-02-23 17:00:00 16.9 16 Sur 27 Sur 0 -- -- 45
2021-02-23 16:00:00 16.9 16 Sur 28 Sur 0 -- -- 46
2021-02-23 15:00:00 16.4 17 Sur 29 Sur 0 -- -- 46
2021-02-23 14:00:00 15.7 17 Sur 27 Sur 0 -- -- 43
2021-02-23 13:00:00 14.4 12 Sur 23 Sudeste 0 -- -- 50
2021-02-23 12:00:00 13 13 Sudeste 21 Sur 0 -- -- 60
2021-02-23 11:00:00 11 11 Sur 18 Sur 0 -- -- 74
2021-02-23 10:00:00 7.6 8 Sudeste 12 Sur 0 -- -- 83
2021-02-23 09:00:00 4.9 8 Sudeste 12 Sudeste 0 -- -- 89
2021-02-23 08:00:00 3.8 9 Sudeste 12 Sudeste 0 -- -- 93
2021-02-23 07:00:00 3.9 8 Sur 13 Sur 0 -- -- 92
2021-02-23 06:00:00 4.6 12 Sur 15 Sur 0 -- -- 91
2021-02-23 05:00:00 5 10 Sur 13 Sur 0 -- -- 93
2021-02-23 04:00:00 5.2 5 Sur 13 Sudoeste 0 -- -- 93
2021-02-23 03:00:00 5.7 11 Sudoeste 17 Sudoeste 0 -- -- 89
2021-02-23 02:00:00 6.5 12 Sudoeste 17 Sudoeste 0 -- -- 86
2021-02-23 01:00:00 6.5 15 Sudoeste 20 Sudoeste 0 -- -- 84
2021-02-23 00:00:00 6.7 12 Sudoeste 14 Sudoeste 0 -- -- 85
2021-02-22 23:00:00 7.8 12 Sudoeste 13 Sudoeste 0 -- -- 81
2021-02-22 22:00:00 8.2 10 Sudoeste 12 Sudoeste 0 -- -- 78
2021-02-22 21:00:00 9.7 5 Sudeste 5 Sudeste 0 -- -- 69
2021-02-22 20:00:00 10.7 2 Norte 11 Noroeste 0 -- -- 66
2021-02-22 19:00:00 12.6 7 Noroeste 17 Norte 0 -- -- 59
2021-02-22 18:00:00 13.8 8 Noroeste 22 Noroeste 0 -- -- 57
2021-02-22 17:00:00 13.7 12 Norte 26 Noroeste 0 -- -- 57
2021-02-22 16:00:00 13.6 17 Norte 30 Norte 0 -- -- 60
2021-02-22 15:00:00 12.9 17 Norte 30 Norte 0 -- -- 63
2021-02-22 14:00:00 13.4 11 Noroeste 26 Norte 0 -- -- 64
2021-02-22 13:00:00 12.2 11 Norte 19 Norte 0 -- -- 69
2021-02-22 12:00:00 11 7 Noroeste 15 Norte 0 -- -- 76
2021-02-22 11:00:00 9.7 7 Norte 12 Noroeste 0 -- -- 80
2021-02-22 10:00:00 7.8 6 Noroeste 12 Noroeste 0 -- -- 88
2021-02-22 09:00:00 4.3 7 Oeste 9 Oeste 0 -- -- 96
2021-02-22 08:00:00 3.2 5 Oeste 6 Noroeste 0 -- -- 95
2021-02-22 07:00:00 3.9 6 Noroeste 12 Noroeste 0 -- -- 92
2021-02-22 06:00:00 5 6 Noroeste 19 Noroeste 0 -- -- 90
2021-02-22 05:00:00 5.3 12 Noroeste 21 Noroeste 0 -- -- 91
2021-02-22 04:00:00 5.5 9 Noroeste 18 Noroeste 0 -- -- 91
2021-02-22 03:00:00 5.7 10 Noroeste 23 Noroeste 0 -- -- 92
2021-02-22 02:00:00 5.7 11 Noroeste 26 Noroeste 0 -- -- 92
2021-02-22 01:00:00 6.2 16 Noroeste 28 Noroeste 0 -- -- 90
2021-02-22 00:00:00 6.6 17 Noroeste 29 Noroeste 0 -- -- 87
2021-02-21 23:00:00 7.2 14 Noroeste 25 Noroeste 0 -- -- 86
2021-02-21 22:00:00 7.7 12 Noroeste 33 Noroeste 0 -- -- 85
2021-02-21 21:00:00 8.4 23 Noroeste 34 Noroeste 0 -- -- 81
2021-02-21 20:00:00 9.3 21 Noroeste 28 Norte 0 -- -- 78
2021-02-21 19:00:00 10.4 14 Norte 24 Noroeste 0 -- -- 78
2021-02-21 18:00:00 10.2 14 Norte 34 Norte 0 -- -- 78
2021-02-21 17:00:00 10.4 22 Norte 35 Norte 0 -- -- 79
2021-02-21 16:00:00 9.1 22 Norte 33 Norte 0 -- -- 85
2021-02-21 15:00:00 8.6 22 Norte 32 Norte 0 -- -- 89
2021-02-21 14:00:00 8.5 18 Norte 29 Norte 0 -- -- 88
2021-02-21 13:00:00 8.4 16 Norte 25 Norte 0.2 -- -- 91
2021-02-21 12:00:00 7.4 4 Noroeste 17 Noroeste 1.6 -- -- 95
2021-02-21 11:00:00 7.2 10 Noroeste 37 Noroeste 2.6 -- -- 96
2021-02-21 10:00:00 7.5 24 Noroeste 34 Noroeste 1.6 -- -- 96
2021-02-21 09:00:00 8 18 Noroeste 31 Noroeste 1.2 -- -- 95
2021-02-21 08:00:00 8.8 17 Noroeste 31 Noroeste 2.2 -- -- 94
2021-02-21 07:00:00 11.2 24 Oeste 48 Sudoeste 0.2 -- -- 84
2021-02-21 06:00:00 13.3 44 Sudoeste 60 Sudoeste 0 -- -- 67
2021-02-21 05:00:00 14 41 Sudoeste 59 Sudoeste 0 -- -- 64
2021-02-21 04:00:00 12.8 19 Sudoeste 31 Sudoeste 0 -- -- 63
2021-02-21 03:00:00 11.8 14 Sur 31 Sur 0 -- -- 62
2021-02-21 02:00:00 11.6 17 Sur 28 Sudoeste 0 -- -- 65
2021-02-21 01:00:00 11.9 11 Sur 27 Sur 0 -- -- 68
2021-02-21 00:00:00 12.7 19 Sur 27 Sur 0 -- -- 67
2021-02-20 23:00:00 12.4 13 Sudoeste 24 Sur 0 -- -- 68
2021-02-20 22:00:00 12.8 9 Sur 27 Sur 0 -- -- 61
2021-02-20 21:00:00 13.3 20 Sur 30 Sudoeste 0 -- -- 56
2021-02-20 20:00:00 14.6 24 Sudoeste 36 Sudoeste 0 -- -- 53
2021-02-20 19:00:00 15 15 Sur 25 Sudoeste 0 -- -- 52
2021-02-20 18:00:00 15.7 12 Sudoeste 30 Sudoeste 0 -- -- 54
2021-02-20 17:00:00 15.8 21 Sudoeste 48 Sudoeste 0 -- -- 56
2021-02-20 16:00:00 16.1 29 Sudoeste 54 Sudoeste 0 -- -- 50
2021-02-20 15:00:00 16.4 33 Sudoeste 50 Sudoeste 0 -- -- 46
2021-02-20 14:00:00 15.9 37 Sudoeste 56 Sudoeste 0 -- -- 48
2021-02-20 13:00:00 14.7 40 Sudoeste 55 Sudoeste 0 -- -- 56
2021-02-20 12:00:00 13.3 26 Sudoeste 39 Sudoeste 0 -- -- 67
2021-02-20 11:00:00 12.3 17 Sudoeste 31 Sudoeste 0 -- -- 75
2021-02-20 10:00:00 10.9 14 Sudoeste 22 Sudoeste 0 -- -- 82
2021-02-20 09:00:00 9.8 12 Sudoeste 24 Sudoeste 0 -- -- 86
2021-02-20 08:00:00 9.7 15 Sudoeste 29 Sudoeste 0 -- -- 87
2021-02-20 07:00:00 8.9 13 Sur 19 Sudoeste 0 -- -- 92
2021-02-20 06:00:00 9 15 Sur 23 Sur 0 -- -- 91
2021-02-20 05:00:00 9.2 16 Sur 26 Sudoeste 0 -- -- 90
2021-02-20 04:00:00 9.7 20 Sudoeste 28 Sudoeste 0 -- -- 89
2021-02-20 03:00:00 9.6 15 Sudoeste 25 Sur 0 -- -- 90
2021-02-20 02:00:00 9.5 15 Sur 25 Sudoeste 0 -- -- 90
2021-02-20 01:00:00 9.5 16 Sudoeste 22 Sudoeste 0 -- -- 91
2021-02-20 00:00:00 9.5 10 Sudoeste 24 Sudoeste 0 -- -- 84
2021-02-19 23:00:00 10.3 13 Sudoeste 24 Sudoeste 0 -- -- 82
2021-02-19 22:00:00 11 14 Sudoeste 25 Sudoeste 0 -- -- 81
2021-02-19 21:00:00 11.5 14 Sudoeste 21 Sudoeste 0 -- -- 75
2021-02-19 20:00:00 12.7 12 Sudoeste 18 Sudoeste 0 -- -- 70
2021-02-19 19:00:00 15 9 Oeste 22 Oeste 0 -- -- 64
2021-02-19 18:00:00 17 17 Oeste 22 Noroeste 0 -- -- 55
2021-02-19 17:00:00 16.9 11 Nordeste 24 Norte 0 -- -- 59
2021-02-19 16:00:00 17.7 14 Norte 31 Oeste 0 -- -- 58
2021-02-19 15:00:00 19.6 24 Oeste 50 Oeste 0 -- -- 43
2021-02-19 14:00:00 19.3 26 Oeste 36 Oeste 0 -- -- 46
2021-02-19 13:00:00 17.7 17 Sudoeste 28 Sudoeste 0 -- -- 51
2021-02-19 12:00:00 14.2 3 Este 15 Sur 0 -- -- 73
2021-02-19 11:00:00 11.9 7 Sur 17 Sur 0 -- -- 76
2021-02-19 10:00:00 9.6 8 Sur 11 Sur 0 -- -- 86
2021-02-19 09:00:00 6.7 9 Sur 14 Sur 0 -- -- 96
2021-02-19 08:00:00 5.9 13 Sur 17 Sur 0 -- -- 96
2021-02-19 07:00:00 6.3 13 Sur 17 Sur 0 -- -- 97
2021-02-19 06:00:00 6.1 14 Sur 18 Sur 0 -- -- 97
2021-02-19 05:00:00 6.6 12 Sur 15 Sur 0 -- -- 97
2021-02-19 04:00:00 7.7 12 Sur 15 Sur 0 -- -- 95
2021-02-19 03:00:00 8.3 12 Sur 17 Sur 0 -- -- 95
2021-02-19 02:00:00 8.4 12 Sur 15 Sur 0 -- -- 93
2021-02-19 01:00:00 8.8 12 Sudoeste 16 Sudoeste 0 -- -- 91
2021-02-19 00:00:00 8.9 13 Sur 15 Sudoeste 0 -- -- 80
2021-02-18 23:00:00 10.2 10 Sudoeste 14 Sudoeste 0 -- -- 69
2021-02-18 22:00:00 11.2 12 Sudoeste 13 Sudoeste 0 -- -- 62
2021-02-18 21:00:00 13 6 Oeste 7 Oeste 0 -- -- 50
2021-02-18 20:00:00 14.7 4 Noroeste 10 Noroeste 0 -- -- 45
2021-02-18 19:00:00 16.5 6 Noroeste 17 Oeste 0 -- -- 40
2021-02-18 18:00:00 18.5 9 Noroeste 28 Noroeste 0 -- -- 38
2021-02-18 17:00:00 19.2 12 Oeste 25 Oeste 0 -- -- 38
2021-02-18 16:00:00 19.6 17 Noroeste 26 Noroeste 0 -- -- 38
2021-02-18 15:00:00 19.3 10 Noroeste 23 Norte 0 -- -- 42
2021-02-18 14:00:00 18.7 14 Noroeste 27 Noroeste 0 -- -- 42
2021-02-18 13:00:00 17.3 11 Noroeste 21 Norte 0 -- -- 50
2021-02-18 12:00:00 14.2 5 Sudeste 7 Este 0 -- -- 76
2021-02-18 11:00:00 11.9 4 Sudeste 8 Sudeste 0 -- -- 84
2021-02-18 10:00:00 8.9 5 Sur 12 Sur 0 -- -- 98
2021-02-18 09:00:00 7.4 11 Sur 14 Sur 0 -- -- 99
2021-02-18 08:00:00 8.2 12 Sur 14 Sur 0 -- -- 97
2021-02-18 07:00:00 9 2 Sudoeste 8 Sudoeste 0 -- -- 96
2021-02-18 06:00:00 9.5 2 Oeste 6 Noroeste 0 -- -- 92
2021-02-18 05:00:00 9.2 0 Calma 8 Norte 0 -- -- 83
2021-02-18 04:00:00 9.4 6 Nordeste 9 Norte 0 -- -- 69
2021-02-18 03:00:00 10 6 Oeste 11 Sudoeste 0 -- -- 66
2021-02-18 02:00:00 10.3 10 Sudoeste 12 Sudoeste 0 -- -- 63
2021-02-18 01:00:00 10.1 10 Oeste 11 Sudoeste 0 -- -- 67
2021-02-18 00:00:00 10.4 10 Sudoeste 11 Sudoeste 0 -- -- 71
2021-02-17 23:00:00 11.4 7 Oeste 14 Sudoeste 0 -- -- 66
2021-02-17 22:00:00 12.1 6 Sudoeste 9 Sudoeste 0 -- -- 76
2021-02-17 21:00:00 14.3 6 Noroeste 10 Noroeste 0 -- -- 73
2021-02-17 20:00:00 15.5 6 Norte 12 Norte 0 -- -- 69
2021-02-17 19:00:00 18.1 8 Noroeste 13 Noroeste 0 -- -- 56
2021-02-17 18:00:00 20.4 6 Noroeste 13 Oeste 0 -- -- 46
2021-02-17 17:00:00 20.3 5 Este 11 Sudeste 0 -- -- 51
2021-02-17 16:00:00 20.2 3 Sur 10 Sudeste 0 -- -- 52
2021-02-17 15:00:00 19 4 Sudeste 13 Sudeste 0 -- -- 58
2021-02-17 14:00:00 18 8 Este 12 Este 0 -- -- 62
2021-02-17 13:00:00 16.8 7 Este 14 Sudoeste 0 -- -- 67
2021-02-17 12:00:00 14.8 6 Sudeste 14 Sudeste 0 -- -- 72
2021-02-17 11:00:00 12.8 10 Sudeste 15 Sur 0 -- -- 80
2021-02-17 10:00:00 9.4 6 Sudeste 12 Sur 0 -- -- 88
2021-02-17 09:00:00 6.4 10 Sur 14 Sur 0 -- -- 95
2021-02-17 08:00:00 6 11 Sudoeste 13 Sudoeste 0 -- -- 94
2021-02-17 07:00:00 7.4 10 Sudoeste 15 Sudoeste 0 -- -- 94
2021-02-17 06:00:00 6.5 10 Sur 13 Sur 0 -- -- 94
2021-02-17 05:00:00 8.1 10 Sudoeste 13 Sudoeste 0 -- -- 89
2021-02-17 04:00:00 8.8 11 Sudoeste 13 Sudoeste 0 -- -- 89
2021-02-17 03:00:00 8.9 12 Sudoeste 14 Sudoeste 0 -- -- 88
2021-02-17 02:00:00 9.2 10 Sudoeste 13 Sudoeste 0 -- -- 87
2021-02-17 01:00:00 9.6 8 Sudoeste 9 Sudoeste 0 -- -- 85
2021-02-17 00:00:00 9.7 3 Sur 6 Este 0 -- -- 84
2021-02-16 23:00:00 11.2 5 Este 8 Nordeste 0 -- -- 80
2021-02-16 22:00:00 11.6 6 Nordeste 9 Nordeste 0 -- -- 79
2021-02-16 21:00:00 12 6 Nordeste 9 Nordeste 0 -- -- 77
2021-02-16 20:00:00 13 7 Nordeste 11 Nordeste 0 -- -- 72
2021-02-16 19:00:00 15.1 6 Nordeste 12 Nordeste 0 -- -- 65
2021-02-16 18:00:00 16.8 7 Este 17 Nordeste 0 -- -- 58
2021-02-16 17:00:00 17.5 6 Nordeste 15 Nordeste 0 -- -- 55
2021-02-16 16:00:00 17.2 6 Este 14 Nordeste 0 -- -- 53
2021-02-16 15:00:00 16.8 7 Este 17 Nordeste 0 -- -- 55
2021-02-16 14:00:00 16.5 8 Norte 13 Norte 0 -- -- 58
2021-02-16 13:00:00 15.5 3 Noroeste 9 Norte 0 -- -- 61
2021-02-16 12:00:00 14 5 Noroeste 10 Norte 0 -- -- 66
2021-02-16 11:00:00 12.4 3 Sudoeste 14 Sur 0 -- -- 71
2021-02-16 10:00:00 9.1 9 Sudoeste 15 Sudoeste 0 -- -- 78
2021-02-16 09:00:00 6.6 11 Sudoeste 18 Sudoeste 0 -- -- 86
2021-02-16 08:00:00 6.3 13 Sudoeste 18 Sudoeste 0 -- -- 86
2021-02-16 07:00:00 7.1 13 Sur 20 Sur 0 -- -- 84
2021-02-16 06:00:00 7.2 13 Sur 20 Sur 0 -- -- 84
2021-02-16 05:00:00 7.5 14 Sur 20 Sur 0 -- -- 82
2021-02-16 04:00:00 7.3 12 Sudeste 18 Sur 0 -- -- 83
2021-02-16 03:00:00 7.7 12 Sudeste 18 Sur 0 -- -- 81
2021-02-16 02:00:00 8.3 15 Sur 20 Sur 0 -- -- 78
2021-02-16 01:00:00 9 12 Sudeste 16 Sudeste 0 -- -- 76
2021-02-16 00:00:00 9.5 10 Sudeste 14 Sudeste 0 -- -- 78
2021-02-15 23:00:00 10.3 10 Sudeste 21 Sur 0 -- -- 77
2021-02-15 22:00:00 11.4 14 Sur 20 Sur 0 -- -- 75
2021-02-15 21:00:00 12.3 11 Sur 17 Sudeste 0 -- -- 74
2021-02-15 20:00:00 14 12 Sur 18 Sur 0 -- -- 69
2021-02-15 19:00:00 16 13 Sur 29 Sur 0 -- -- 63
2021-02-15 18:00:00 18.2 18 Sur 29 Sur 0 -- -- 56
2021-02-15 17:00:00 19.3 19 Sur 29 Sur 0 -- -- 50
2021-02-15 16:00:00 19.6 19 Sur 30 Sur 0 -- -- 48
2021-02-15 15:00:00 19.1 19 Sur 31 Sur 0 -- -- 49
2021-02-15 14:00:00 17.7 20 Sur 31 Sur 0 -- -- 53
2021-02-15 13:00:00 16.6 24 Sur 36 Sur 0 -- -- 55
2021-02-15 12:00:00 14.5 21 Sur 32 Sur 0 -- -- 62
2021-02-15 11:00:00 12.9 20 Sur 29 Sur 0 -- -- 67
2021-02-15 10:00:00 10.3 17 Sur 24 Sur 0 -- -- 78
2021-02-15 09:00:00 7.3 10 Sudeste 17 Sur 0 -- -- 86
2021-02-15 08:00:00 6.7 11 Sur 19 Sur 0 -- -- 85
2021-02-15 07:00:00 7.2 14 Sur 21 Sur 0 -- -- 84
2021-02-15 06:00:00 6.9 12 Sur 18 Sur 0 -- -- 87
2021-02-15 05:00:00 6.7 11 Sur 17 Sur 0 -- -- 87
2021-02-15 04:00:00 7.9 10 Sur 17 Sur 0 -- -- 82
2021-02-15 03:00:00 8.2 12 Sur 19 Sur 0 -- -- 80
2021-02-15 02:00:00 8.5 13 Sur 19 Sur 0 -- -- 79
2021-02-15 01:00:00 9.2 13 Sur 22 Sur 0 -- -- 76
2021-02-15 00:00:00 9.4 13 Sur 20 Sur 0 -- -- 78
2021-02-14 23:00:00 10.4 11 Sur 17 Sur 0 -- -- 77
2021-02-14 22:00:00 11.5 13 Sur 18 Sur 0 -- -- 76
2021-02-14 21:00:00 13.4 9 Sur 12 Sur 0 -- -- 66
2021-02-14 20:00:00 15.2 7 Sudeste 10 Sudeste 0 -- -- 59
2021-02-14 19:00:00 17.7 6 Sur 14 Sur 0 -- -- 51
2021-02-14 18:00:00 19.5 10 Sur 19 Sur 0 -- -- 45
2021-02-14 17:00:00 20 11 Sur 23 Sudeste 0 -- -- 46
2021-02-14 16:00:00 19.9 11 Sur 22 Sur 0 -- -- 49
2021-02-14 15:00:00 19.8 12 Sur 20 Sudeste 0 -- -- 47
2021-02-14 14:00:00 18.6 10 Sudeste 20 Sur 0 -- -- 56
2021-02-14 13:00:00 16.9 10 Sudeste 16 Sudeste 0 -- -- 62
2021-02-14 12:00:00 14.3 8 Sur 15 Sudeste 0 -- -- 70
2021-02-14 11:00:00 11.5 9 Sudeste 15 Sudeste 0 -- -- 77
2021-02-14 10:00:00 8.2 9 Sudeste 13 Sur 0 -- -- 85
2021-02-14 09:00:00 5.7 9 Sudeste 13 Sudeste 0 -- -- 90
2021-02-14 08:00:00 4.9 9 Sur 11 Sur 0 -- -- 92
2021-02-14 07:00:00 5.2 8 Sudeste 12 Sur 0 -- -- 93
2021-02-14 06:00:00 5.6 9 Sur 14 Sur 0 -- -- 91
2021-02-14 05:00:00 5.7 10 Sudeste 13 Sudeste 0 -- -- 90
2021-02-14 04:00:00 6.3 10 Sur 13 Sudoeste 0 -- -- 88
2021-02-14 03:00:00 6.8 12 Sudoeste 15 Sudoeste 0 -- -- 86
2021-02-14 02:00:00 7.2 13 Sudoeste 15 Sudoeste 0 -- -- 84
2021-02-14 01:00:00 7.7 9 Sudoeste 12 Sudoeste 0 -- -- 82
2021-02-14 00:00:00 8 8 Sudoeste 11 Sudoeste 0 -- -- 81
2021-02-13 23:00:00 9 0 Calma 5 Sudoeste 0 -- -- 76
2021-02-13 22:00:00 10.9 3 Norte 5 Norte 0 -- -- 69
2021-02-13 21:00:00 11.8 4 Noroeste 6 Norte 0 -- -- 68
2021-02-13 20:00:00 12.4 4 Norte 8 Norte 0 -- -- 67
2021-02-13 19:00:00 14.7 6 Norte 8 Nordeste 0 -- -- 59
2021-02-13 18:00:00 15.8 7 Nordeste 11 Nordeste 0 -- -- 48
2021-02-13 17:00:00 16.4 2 Norte 9 Noroeste 0 -- -- 52
2021-02-13 16:00:00 16.1 5 Norte 14 Norte 0 -- -- 57
2021-02-13 15:00:00 15.6 8 Norte 13 Norte 0 -- -- 65
2021-02-13 14:00:00 14.6 7 Noroeste 13 Noroeste 0 -- -- 72
2021-02-13 13:00:00 13 5 Norte 16 Norte 0 -- -- 84
2021-02-13 08:00:00 -- -- -- -- -- -- -- -- --
2021-02-13 07:00:00 6.9 5 Oeste 10 Norte 0 -- -- 98
2021-02-13 06:00:00 7.4 6 Noroeste 13 Noroeste 0 -- -- 97
2021-02-13 05:00:00 7.1 6 Noroeste 10 Noroeste 0 -- -- 96
2021-02-13 04:00:00 6.9 8 Oeste 9 Oeste 0 -- -- 94
2021-02-13 03:00:00 8.1 5 Oeste 8 Noroeste 0 -- -- 89
2021-02-13 02:00:00 8.7 6 Noroeste 9 Oeste 0 -- -- 89
2021-02-13 01:00:00 8.5 7 Oeste 10 Oeste 0 -- -- 90
2021-02-13 00:00:00 8.6 9 Oeste 11 Noroeste 0 -- -- 91
2021-02-12 23:00:00 9.2 9 Noroeste 10 Noroeste 0 -- -- 89
2021-02-12 22:00:00 9.8 6 Oeste 11 Noroeste 0 -- -- 86
2021-02-12 21:00:00 10.6 3 Oeste 8 Noroeste 0 -- -- 82
2021-02-12 20:00:00 11.9 4 Oeste 10 Norte 0 -- -- 79
2021-02-12 19:00:00 13.4 9 Norte 21 Norte 0 -- -- 75
2021-02-12 18:00:00 14.8 13 Norte 23 Noroeste 0 -- -- 67
2021-02-12 17:00:00 15.3 12 Noroeste 25 Noroeste 0 -- -- 67
2021-02-12 16:00:00 15.2 17 Norte 28 Norte 0 -- -- 68
2021-02-12 15:00:00 14.9 17 Norte 30 Norte 0 -- -- 72
2021-02-12 14:00:00 14.5 19 Norte 32 Norte 0 -- -- 77
2021-02-12 13:00:00 13.6 22 Noroeste 35 Noroeste 0 -- -- 79
2021-02-12 12:00:00 13 20 Noroeste 31 Noroeste 0 -- -- 83
2021-02-12 11:00:00 11.8 18 Noroeste 28 Noroeste 0 -- -- 90
2021-02-12 10:00:00 11.3 13 Noroeste 23 Noroeste 0 -- -- 93
2021-02-12 09:00:00 10 9 Noroeste 21 Noroeste 0 -- -- 98
2021-02-12 08:00:00 9.9 13 Noroeste 22 Noroeste 0 -- -- 97
2021-02-12 07:00:00 10.1 12 Noroeste 20 Noroeste 0 -- -- 96
2021-02-12 06:00:00 11.2 12 Noroeste 39 Noroeste 0 -- -- 95
2021-02-12 05:00:00 12.2 24 Noroeste 36 Noroeste 0.4 -- -- 96
2021-02-12 04:00:00 12.4 11 Oeste 20 Oeste 0 -- -- 95
2021-02-12 03:00:00 12.4 13 Oeste 23 Oeste 0 -- -- 94
2021-02-12 02:00:00 12.4 15 Oeste 23 Oeste 0 -- -- 93
2021-02-12 01:00:00 12.3 17 Oeste 22 Oeste 0 -- -- 94
2021-02-12 00:00:00 12.9 12 Oeste 15 Oeste 0 -- -- 94
2021-02-11 23:00:00 13 9 Oeste 18 Oeste 0 -- -- 94
2021-02-11 22:00:00 13.3 14 Oeste 20 Sudoeste 0 -- -- 92
2021-02-11 21:00:00 13.1 14 Sudoeste 19 Sudoeste 0 -- -- 92
2021-02-11 20:00:00 13 14 Sudoeste 18 Oeste 0 -- -- 93
2021-02-11 19:00:00 13.3 12 Sudoeste 17 Sudoeste 0 -- -- 94
2021-02-11 18:00:00 13.6 14 Oeste 23 Oeste 0.2 -- -- 96
2021-02-11 17:00:00 14.8 11 Norte 17 Norte 0 -- -- 91
2021-02-11 16:00:00 15.9 8 Noroeste 16 Noroeste 0 -- -- 83
2021-02-11 15:00:00 15.4 8 Noroeste 20 Oeste 0 -- -- 87
2021-02-11 14:00:00 15.3 15 Oeste 22 Oeste 0 -- -- 87
2021-02-11 13:00:00 15.2 15 Oeste 23 Oeste 0 -- -- 88
2021-02-11 12:00:00 14.5 12 Sudoeste 21 Sudoeste 0 -- -- 90
2021-02-11 11:00:00 13.5 12 Sudoeste 17 Sudoeste 0 -- -- 95
2021-02-11 10:00:00 12.4 10 Sudoeste 19 Sudoeste 0 -- -- 97
2021-02-11 09:00:00 11.8 9 Sudoeste 13 Sudoeste 0 -- -- 97
2021-02-11 08:00:00 12 10 Oeste 13 Oeste 0 -- -- 97
2021-02-11 07:00:00 12 0 Calma 6 Oeste 0 -- -- 99
2021-02-11 06:00:00 12 4 Oeste 7 Oeste 0 -- -- 99
2021-02-11 05:00:00 12 4 Oeste 7 Oeste 0 -- -- 99
2021-02-11 04:00:00 12 4 Oeste 8 Oeste 0 -- -- 99
2021-02-11 03:00:00 12.2 6 Oeste 15 Noroeste 0 -- -- 98
2021-02-11 02:00:00 12.7 10 Noroeste 21 Oeste 0 -- -- 98
2021-02-11 01:00:00 12.9 14 Noroeste 23 Noroeste 0 -- -- 98
2021-02-11 00:00:00 13 18 Noroeste 27 Noroeste 0 -- -- 99
2021-02-10 23:00:00 13.2 11 Noroeste 20 Noroeste 0 -- -- 99
2021-02-10 22:00:00 12.9 8 Oeste 11 Oeste 0 -- -- 99
2021-02-10 21:00:00 13 4 Noroeste 9 Noroeste 0 -- -- 98
2021-02-10 20:00:00 13 4 Noroeste 5 Norte 0 -- -- 97
2021-02-10 19:00:00 12.9 3 Noroeste 11 Noroeste 0 -- -- 96
2021-02-10 18:00:00 13.3 6 Noroeste 11 Oeste 0 -- -- 95
2021-02-10 17:00:00 13 7 Noroeste 14 Noroeste 0 -- -- 95
2021-02-10 16:00:00 12.6 7 Noroeste 17 Norte 0 -- -- 96
2021-02-10 15:00:00 12 11 Noroeste 23 Norte 0 -- -- 96
2021-02-10 14:00:00 12.2 11 Norte 27 Norte 0 -- -- 93
2021-02-10 13:00:00 12.3 16 Norte 30 Noroeste 0 -- -- 91
2021-02-10 12:00:00 12.2 18 Norte 31 Noroeste 0.2 -- -- 92
2021-02-10 11:00:00 11.3 14 Noroeste 26 Noroeste 0 -- -- 99
2021-02-10 10:00:00 10.9 12 Noroeste 32 Noroeste 0 -- -- 100
2021-02-10 09:00:00 10.3 11 Noroeste 34 Noroeste 0.6 -- -- 99
2021-02-10 08:00:00 10.1 23 Noroeste 40 Noroeste 1 -- -- 99
2021-02-10 07:00:00 10.2 23 Noroeste 41 Noroeste 1.2 -- -- 98
2021-02-10 06:00:00 10.9 23 Noroeste 36 Noroeste 0.2 -- -- 97
2021-02-10 05:00:00 11.4 26 Noroeste 40 Noroeste 0 -- -- 92
2021-02-10 04:00:00 11.3 22 Noroeste 60 Noroeste 0 -- -- 91
2021-02-10 03:00:00 11.2 36 Oeste 52 Oeste 0 -- -- 85
2021-02-10 02:00:00 10.6 28 Oeste 50 Oeste 0 -- -- 84
2021-02-10 01:00:00 10.6 33 Noroeste 57 Oeste 0 -- -- 86
2021-02-10 00:00:00 9.8 23 Noroeste 50 Noroeste 0 -- -- 89
2021-02-09 23:00:00 10.1 31 Oeste 45 Oeste 0 -- -- 89
2021-02-09 22:00:00 10.8 28 Noroeste 40 Noroeste 0 -- -- 87
2021-02-09 21:00:00 10.7 28 Noroeste 43 Noroeste 0 -- -- 88
2021-02-09 20:00:00 11.1 24 Noroeste 41 Noroeste 0 -- -- 89
2021-02-09 19:00:00 11.7 26 Noroeste 49 Oeste 0 -- -- 91
2021-02-09 18:00:00 12.3 32 Noroeste 51 Noroeste 0 -- -- 88
2021-02-09 17:00:00 11.9 33 Noroeste 47 Noroeste 0.2 -- -- 94
2021-02-09 16:00:00 10.5 22 Noroeste 49 Noroeste 0.8 -- -- 97
2021-02-09 15:00:00 11.2 34 Noroeste 53 Oeste 1.8 -- -- 95
2021-02-09 14:00:00 11.8 36 Oeste 57 Oeste 0.6 -- -- 89
2021-02-09 13:00:00 11.4 42 Oeste 61 Oeste 1.2 -- -- 92
2021-02-09 12:00:00 11.2 38 Oeste 53 Oeste 1 -- -- 92
2021-02-09 11:00:00 11 33 Oeste 48 Oeste 0 -- -- 88
2021-02-09 10:00:00 10.3 30 Oeste 51 Oeste 0 -- -- 92
2021-02-09 09:00:00 10.9 36 Oeste 48 Oeste 0 -- -- 85
2021-02-09 08:00:00 10.4 30 Oeste 42 Oeste 0 -- -- 86
2021-02-09 07:00:00 10 24 Sudoeste 38 Oeste 0 -- -- 88
2021-02-09 06:00:00 10.1 19 Sudoeste 28 Sudoeste 0 -- -- 89
2021-02-09 05:00:00 10 22 Oeste 32 Oeste 0 -- -- 90
2021-02-09 04:00:00 9.9 18 Oeste 28 Oeste 0 -- -- 89
2021-02-09 03:00:00 9.6 19 Oeste 32 Oeste 0 -- -- 94
2021-02-09 02:00:00 9.1 18 Sudoeste 27 Sudoeste 0 -- -- 94
2021-02-09 01:00:00 8.8 19 Oeste 26 Oeste 0 -- -- 90
2021-02-09 00:00:00 8.7 18 Oeste 26 Oeste 0 -- -- 90
2021-02-08 23:00:00 9.2 17 Oeste 32 Noroeste 0 -- -- 89
2021-02-08 22:00:00 9.5 17 Noroeste 31 Noroeste 0 -- -- 86
2021-02-08 21:00:00 9.5 17 Noroeste 27 Noroeste 0 -- -- 82
2021-02-08 20:00:00 9.8 18 Noroeste 27 Noroeste 0 -- -- 78
2021-02-08 19:00:00 10.7 13 Noroeste 31 Noroeste 0 -- -- 78
2021-02-08 18:00:00 11.7 17 Noroeste 42 Norte 0 -- -- 78
2021-02-08 17:00:00 12.6 24 Noroeste 43 Noroeste 0 -- -- 73
2021-02-08 16:00:00 11.1 22 Noroeste 51 Noroeste 0.2 -- -- 79
2021-02-08 15:00:00 13.2 32 Noroeste 53 Noroeste 0 -- -- 69
2021-02-08 14:00:00 13.3 27 Noroeste 47 Noroeste 0 -- -- 73
2021-02-08 13:00:00 12.3 27 Noroeste 50 Noroeste 0 -- -- 78
2021-02-08 12:00:00 10.7 27 Noroeste 47 Noroeste 0 -- -- 86
2021-02-08 11:00:00 11 23 Noroeste 41 Noroeste 0 -- -- 88
2021-02-08 10:00:00 9.5 22 Noroeste 37 Noroeste 0 -- -- 93
2021-02-08 09:00:00 8.1 24 Noroeste 35 Oeste 0 -- -- 95
2021-02-08 08:00:00 8.1 20 Noroeste 31 Noroeste 0 -- -- 95
2021-02-08 07:00:00 8.4 21 Noroeste 37 Noroeste 0 -- -- 95
2021-02-08 06:00:00 8.8 22 Noroeste 32 Oeste 0 -- -- 96
2021-02-08 05:00:00 9.3 19 Noroeste 46 Norte 1 -- -- 98
2021-02-08 04:00:00 10.6 34 Noroeste 53 Noroeste 2.2 -- -- 94
2021-02-08 03:00:00 11 35 Oeste 57 Oeste 0 -- -- 93
2021-02-08 02:00:00 10.2 29 Oeste 43 Sudoeste 0 -- -- 95
2021-02-08 01:00:00 9.4 26 Oeste 40 Sudoeste 0 -- -- 96
2021-02-08 00:00:00 9.3 29 Oeste 45 Oeste 0 -- -- 92
2021-02-07 23:00:00 9.2 26 Oeste 38 Oeste 0 -- -- 92
2021-02-07 22:00:00 8.8 24 Oeste 32 Oeste 0 -- -- 92
2021-02-07 21:00:00 8.7 21 Oeste 27 Oeste 0 -- -- 91
2021-02-07 20:00:00 8.9 16 Oeste 28 Oeste 0 -- -- 89
2021-02-07 19:00:00 9.2 16 Oeste 29 Noroeste 0 -- -- 87
2021-02-07 18:00:00 9.3 19 Noroeste 29 Noroeste 0 -- -- 82
2021-02-07 17:00:00 9.6 15 Noroeste 36 Noroeste 0 -- -- 81
2021-02-07 16:00:00 9.5 22 Noroeste 39 Noroeste 0 -- -- 79
2021-02-07 15:00:00 9.6 24 Noroeste 44 Norte 0 -- -- 77
2021-02-07 14:00:00 9.6 30 Noroeste 45 Noroeste 0 -- -- 78
2021-02-07 13:00:00 9.5 25 Noroeste 39 Noroeste 0 -- -- 78
2021-02-07 12:00:00 9 20 Noroeste 30 Noroeste 0 -- -- 78
2021-02-07 11:00:00 7.8 12 Noroeste 26 Noroeste 0 -- -- 86
2021-02-07 10:00:00 6.1 16 Noroeste 24 Noroeste 0 -- -- 94
2021-02-07 09:00:00 5.1 13 Noroeste 24 Noroeste 0 -- -- 98
2021-02-07 08:00:00 5.5 12 Noroeste 20 Norte 0 -- -- 99
2021-02-07 07:00:00 5.9 8 Noroeste 22 Noroeste 0 -- -- 98
2021-02-07 06:00:00 6.6 10 Noroeste 22 Noroeste 0 -- -- 98
2021-02-07 05:00:00 7.7 16 Noroeste 25 Noroeste 0 -- -- 98
2021-02-07 04:00:00 8 10 Noroeste 19 Noroeste 0 -- -- 99
2021-02-07 03:00:00 8.3 11 Noroeste 17 Noroeste 0 -- -- 99
2021-02-07 02:00:00 8.4 13 Noroeste 19 Noroeste 0 -- -- 99
2021-02-07 01:00:00 8.4 8 Noroeste 15 Noroeste 0 -- -- 99
2021-02-07 00:00:00 8.6 10 Noroeste 17 Noroeste 0 -- -- 99
2021-02-06 23:00:00 8.6 11 Noroeste 16 Noroeste 0 -- -- 99
2021-02-06 22:00:00 8.7 10 Noroeste 16 Noroeste 0.2 -- -- 99
2021-02-06 21:00:00 8.6 4 Noroeste 10 Noroeste 0 -- -- 99
2021-02-06 20:00:00 8.4 4 Noroeste 12 Noroeste 0.2 -- -- 98
2021-02-06 19:00:00 8.8 5 Noroeste 14 Noroeste 0 -- -- 97
2021-02-06 18:00:00 9 7 Noroeste 15 Noroeste 0.4 -- -- 97
2021-02-06 17:00:00 9 12 Noroeste 20 Norte 1.2 -- -- 97
2021-02-06 16:00:00 9.3 11 Noroeste 24 Noroeste 0 -- -- 95
2021-02-06 15:00:00 10 13 Noroeste 30 Noroeste 0 -- -- 93
2021-02-06 14:00:00 11.1 14 Noroeste 24 Noroeste 0 -- -- 92
2021-02-06 13:00:00 10.6 15 Oeste 23 Oeste 0 -- -- 93
2021-02-06 12:00:00 10.2 11 Noroeste 23 Noroeste 0 -- -- 94
2021-02-06 11:00:00 9.5 14 Noroeste 25 Oeste 0 -- -- 97
2021-02-06 10:00:00 8.9 17 Noroeste 28 Noroeste 0 -- -- 99
2021-02-06 09:00:00 8.5 11 Noroeste 17 Noroeste 0.2 -- -- 99
2021-02-06 08:00:00 8.3 10 Oeste 21 Oeste 0.2 -- -- 98
2021-02-06 07:00:00 8.1 14 Oeste 22 Oeste 0 -- -- 95
2021-02-06 06:00:00 8.4 16 Oeste 23 Oeste 0 -- -- 95
2021-02-06 05:00:00 8.6 14 Oeste 22 Oeste 0 -- -- 96
2021-02-06 04:00:00 8.9 17 Oeste 22 Oeste 0 -- -- 95
2021-02-06 03:00:00 8.9 11 Oeste 16 Oeste 0 -- -- 97
2021-02-06 02:00:00 8.8 11 Sudoeste 18 Oeste 0 -- -- 97
2021-02-06 01:00:00 9.1 15 Sudoeste 22 Sudoeste 0 -- -- 96
2021-02-06 00:00:00 9.5 9 Oeste 16 Oeste 0 -- -- 95
2021-02-05 23:00:00 9.5 8 Sudoeste 11 Sur 0 -- -- 96
2021-02-05 22:00:00 9.6 8 Sudoeste 14 Sudoeste 0.2 -- -- 96
2021-02-05 21:00:00 9.9 10 Sudoeste 20 Sudoeste 0 -- -- 93
2021-02-05 20:00:00 10 10 Sur 18 Sur 0 -- -- 96
2021-02-05 19:00:00 9.8 10 Sudeste 18 Sudeste 0.2 -- -- 98
2021-02-05 18:00:00 9.9 10 Sudeste 20 Sur 1 -- -- 98
2021-02-05 17:00:00 10.3 10 Sur 17 Sudeste 1.2 -- -- 99
2021-02-05 16:00:00 10.3 10 Sudeste 18 Sudeste 0.4 -- -- 98
2021-02-05 15:00:00 10.3 6 Sudeste 17 Sudeste 1 -- -- 99
2021-02-05 14:00:00 10.1 7 Sudeste 18 Este 2.2 -- -- 99
2021-02-05 13:00:00 10.3 4 Sudoeste 19 Oeste 3 -- -- 99
2021-02-05 12:00:00 10.6 3 Sudoeste 8 Sudeste 0.2 -- -- 100
2021-02-05 11:00:00 10.4 7 Sudeste 12 Sur 0.2 -- -- 100
2021-02-05 10:00:00 9.7 6 Este 11 Nordeste 0.6 -- -- 100
2021-02-05 09:00:00 9.5 3 Sudoeste 17 Este 1 -- -- 100
2021-02-05 08:00:00 9.4 11 Este 18 Este 0.2 -- -- 100
2021-02-05 07:00:00 9.4 8 Norte 13 Norte 0.4 -- -- 100
2021-02-05 06:00:00 9.4 4 Noroeste 10 Oeste 0.4 -- -- 100
2021-02-05 05:00:00 9.4 3 Este 12 Sudoeste 0.8 -- -- 100
2021-02-05 04:00:00 9.2 10 Sudeste 18 Sudoeste 1.8 -- -- 100
2021-02-05 03:00:00 9.3 9 Este 20 Norte 0.2 -- -- 100
2021-02-05 02:00:00 9.3 3 Norte 10 Oeste 0 -- -- 100
2021-02-05 01:00:00 9.3 5 Sudeste 16 Sudeste 0 -- -- 100
2021-02-05 00:00:00 9.6 10 Sudeste 14 Sudeste 0 -- -- 99
2021-02-04 23:00:00 9.8 5 Norte 10 Sudeste 0 -- -- 99
2021-02-04 22:00:00 10 5 Sudeste 10 Este 0 -- -- 98
2021-02-04 21:00:00 10.1 5 Este 8 Nordeste 0 -- -- 98
2021-02-04 20:00:00 10.1 2 Nordeste 13 Sur 0 -- -- 97
2021-02-04 19:00:00 10.3 9 Sur 13 Sur 0 -- -- 96
2021-02-04 18:00:00 10.4 8 Sudeste 13 Sudeste 0 -- -- 96
2021-02-04 17:00:00 10.2 6 Este 16 Norte 1 -- -- 97
2021-02-04 16:00:00 10.3 14 Norte 22 Norte 0.6 -- -- 95
2021-02-04 15:00:00 11.3 13 Norte 22 Norte 0.2 -- -- 93
2021-02-04 14:00:00 11.6 7 Norte 18 Noroeste 0.2 -- -- 95
2021-02-04 13:00:00 10.5 20 Norte 36 Sudoeste 2.2 -- -- 92
2021-02-04 12:00:00 12.8 22 Sudoeste 35 Sudoeste 0 -- -- 88
2021-02-04 11:00:00 12.3 19 Sur 33 Sur 0 -- -- 90
2021-02-04 10:00:00 11.5 19 Sur 27 Sur 0 -- -- 99
2021-02-04 09:00:00 10.3 5 Sur 12 Sudeste 0 -- -- 100
2021-02-04 08:00:00 9.8 8 Sudeste 13 Este 0.2 -- -- 100
2021-02-04 07:00:00 9.6 5 Este 13 Este 0.4 -- -- 100
2021-02-04 06:00:00 9.9 7 Este 10 Este 1 -- -- 100
2021-02-04 05:00:00 9.8 6 Sudeste 12 Sur 0 -- -- 99
2021-02-04 04:00:00 9.9 8 Sur 12 Sudeste 0 -- -- 99
2021-02-04 03:00:00 9.9 7 Sur 10 Sur 0.2 -- -- 98
2021-02-04 02:00:00 10.1 0 Calma 5 Este 1 -- -- 98
2021-02-04 01:00:00 10.3 3 Este 15 Noroeste 0 -- -- 97
2021-02-04 00:00:00 10.6 12 Noroeste 18 Noroeste 0.6 -- -- 98
2021-02-03 23:00:00 10.9 11 Norte 22 Noroeste 1.4 -- -- 96
2021-02-03 22:00:00 12 8 Norte 13 Norte 0 -- -- 95
2021-02-03 21:00:00 13 4 Norte 25 Oeste 0 -- -- 89
2021-02-03 20:00:00 13.4 19 Oeste 33 Oeste 0 -- -- 81
2021-02-03 19:00:00 13.9 24 Oeste 38 Sudoeste 0 -- -- 79
2021-02-03 18:00:00 14.9 27 Sudoeste 41 Oeste 0 -- -- 75
2021-02-03 17:00:00 16.1 31 Sudoeste 41 Sudoeste 0 -- -- 70
2021-02-03 16:00:00 16.9 26 Sudoeste 36 Oeste 0 -- -- 69
2021-02-03 15:00:00 15.9 20 Oeste 39 Oeste 0 -- -- 72
2021-02-03 14:00:00 15.8 28 Oeste 38 Sudoeste 0 -- -- 73
2021-02-03 13:00:00 15.8 28 Oeste 38 Oeste 0 -- -- 72
2021-02-03 12:00:00 14.9 22 Oeste 36 Oeste 0 -- -- 78
2021-02-03 11:00:00 13 23 Sudoeste 35 Sudoeste 0 -- -- 81
2021-02-03 10:00:00 11.6 18 Sudoeste 26 Sudoeste 0 -- -- 85
2021-02-03 09:00:00 11 20 Sudoeste 33 Oeste 0 -- -- 84
2021-02-03 08:00:00 9.9 15 Sudoeste 22 Sudoeste 0 -- -- 88
2021-02-03 07:00:00 8.9 11 Sur 14 Sudoeste 0 -- -- 90
2021-02-03 06:00:00 9.2 9 Sudoeste 19 Sudoeste 0 -- -- 89
2021-02-03 05:00:00 9.9 11 Sudoeste 19 Sudoeste 0 -- -- 87
2021-02-03 04:00:00 10.7 13 Sudoeste 22 Sudoeste 0 -- -- 86
2021-02-03 03:00:00 10.7 13 Sudoeste 17 Sudoeste 0 -- -- 89
2021-02-03 02:00:00 11 9 Sudoeste 14 Sudoeste 0 -- -- 88
2021-02-03 01:00:00 11.4 7 Oeste 18 Noroeste 0 -- -- 87
2021-02-03 00:00:00 11.8 12 Noroeste 18 Noroeste 0 -- -- 84
2021-02-02 23:00:00 11.7 7 Oeste 9 Oeste 0 -- -- 88
2021-02-02 22:00:00 11.7 5 Sudoeste 6 Sudoeste 0 -- -- 89
2021-02-02 21:00:00 12 3 Oeste 5 Noroeste 0 -- -- 87
2021-02-02 20:00:00 12.6 4 Noroeste 8 Noroeste 0 -- -- 85
2021-02-02 19:00:00 12.9 3 Norte 10 Noroeste 0 -- -- 83
2021-02-02 18:00:00 13.4 6 Noroeste 18 Noroeste 0 -- -- 81
2021-02-02 17:00:00 14 9 Noroeste 16 Oeste 0 -- -- 79
2021-02-02 16:00:00 14.1 8 Noroeste 17 Noroeste 0 -- -- 79
2021-02-02 15:00:00 14.1 6 Norte 22 Noroeste 0 -- -- 78
2021-02-02 14:00:00 13.9 15 Oeste 25 Noroeste 0 -- -- 78
2021-02-02 13:00:00 13.6 16 Oeste 25 Noroeste 0 -- -- 83
2021-02-02 12:00:00 12.4 11 Noroeste 19 Noroeste 0.2 -- -- 95
2021-02-02 11:00:00 11.3 10 Noroeste 21 Noroeste 0.4 -- -- 98
2021-02-02 10:00:00 10.1 6 Sudoeste 11 Sudoeste 0 -- -- 99
2021-02-02 09:00:00 9 8 Sudoeste 9 Sudoeste 0 -- -- 99
2021-02-02 08:00:00 8.4 8 Sur 12 Sur 0 -- -- 98
2021-02-02 07:00:00 8.6 10 Sur 12 Sur 0 -- -- 97
2021-02-02 06:00:00 9.3 7 Sur 9 Sudoeste 0 -- -- 96
2021-02-02 05:00:00 9.7 5 Oeste 10 Sudoeste 0 -- -- 96
2021-02-02 04:00:00 10.3 10 Sudoeste 12 Sudoeste 0 -- -- 95
2021-02-02 03:00:00 10.4 8 Sudoeste 12 Oeste 0 -- -- 95
2021-02-02 02:00:00 10.5 8 Oeste 10 Oeste 0 -- -- 95
2021-02-02 01:00:00 9.8 9 Oeste 12 Oeste 0 -- -- 95
2021-02-02 00:00:00 9.5 11 Oeste 13 Oeste 0 -- -- 95
2021-02-01 23:00:00 8.4 10 Oeste 12 Oeste 0 -- -- 94
2021-02-01 22:00:00 9.3 4 Oeste 11 Oeste 0 -- -- 90
2021-02-01 21:00:00 10 10 Oeste 13 Oeste 0 -- -- 90
2021-02-01 20:00:00 10.9 11 Oeste 17 Oeste 0 -- -- 87
2021-02-01 19:00:00 12.1 10 Oeste 22 Noroeste 0 -- -- 83
2021-02-01 18:00:00 14.1 14 Noroeste 26 Noroeste 0 -- -- 74
2021-02-01 17:00:00 14.3 17 Noroeste 31 Noroeste 0 -- -- 75
2021-02-01 16:00:00 15.3 15 Noroeste 30 Noroeste 0 -- -- 71
2021-02-01 15:00:00 14.4 18 Noroeste 31 Noroeste 0 -- -- 77
2021-02-01 14:00:00 14 17 Noroeste 32 Noroeste 0 -- -- 83
2021-02-01 13:00:00 12.7 18 Noroeste 31 Noroeste 0 -- -- 88
2021-02-01 12:00:00 12.5 17 Noroeste 30 Noroeste 0 -- -- 86
2021-02-01 11:00:00 12.3 14 Noroeste 31 Noroeste 0 -- -- 89
2021-02-01 10:00:00 11.8 16 Noroeste 22 Noroeste 0 -- -- 92
2021-02-01 09:00:00 10.9 10 Noroeste 18 Noroeste 0 -- -- 95
2021-02-01 08:00:00 10.7 8 Noroeste 23 Noroeste 0 -- -- 94
2021-02-01 07:00:00 10.6 10 Noroeste 26 Noroeste 0 -- -- 95
2021-02-01 06:00:00 11 13 Noroeste 25 Noroeste 0 -- -- 94
2021-02-01 05:00:00 11.1 18 Noroeste 32 Noroeste 0 -- -- 95
2021-02-01 04:00:00 11.6 17 Noroeste 37 Noroeste 0 -- -- 97
2021-02-01 03:00:00 12 18 Noroeste 31 Noroeste 0 -- -- 97
2021-02-01 02:00:00 12.7 15 Noroeste 31 Norte 0 -- -- 98
2021-02-01 01:00:00 13 21 Noroeste 34 Noroeste 0 -- -- 98
2021-02-01 00:00:00 13.1 21 Noroeste 35 Noroeste 0 -- -- 99